Time;durP1;ratioP1;P1;durP2;ratioP2;P2;SDS_P1;SDS_P2;PMS_P1;PMS_P2;Temp;Humidity;BMP_temperature;BMP_pressure;BME280_temperature;BME280_humidity;BME280_pressure;Samples;Min_cycle;Max_cycle;Signal;HPM_P1;HPM_P2
2023/04/03 03:01:49;;;;;;;3.72;1.17;;;1.60;99.90;;;;;;6228426;22;20020;-77
2023/04/03 03:04:14;;;;;;;3.70;1.33;;;1.60;99.90;;;;;;6246457;23;20031;-75
2023/04/03 03:06:41;;;;;;;5.32;1.17;;;1.50;99.90;;;;;;6218955;23;20094;-75
2023/04/03 03:09:06;;;;;;;3.30;1.30;;;1.50;99.90;;;;;;6246156;23;20014;-76
2023/04/03 03:11:32;;;;;;;4.13;1.25;;;1.50;99.90;;;;;;6219079;23;20346;-76
2023/04/03 03:13:58;;;;;;;5.07;1.35;;;1.50;99.90;;;;;;6246435;23;20010;-76
2023/04/03 03:16:23;;;;;;;4.80;1.73;;;1.50;99.90;;;;;;6219277;23;20055;-76
2023/04/03 03:18:49;;;;;;;2.47;1.20;;;1.40;99.90;;;;;;6245781;23;20008;-76
2023/04/03 03:21:15;;;;;;;4.65;1.20;;;1.40;99.90;;;;;;6219133;23;20019;-75
2023/04/03 03:23:40;;;;;;;4.07;1.42;;;1.40;99.90;;;;;;6218671;23;20008;-77
2023/04/03 03:26:09;;;;;;;3.85;1.35;;;1.40;99.90;;;;;;6193760;23;20016;-76
2023/04/03 03:28:36;;;;;;;5.82;1.83;;;1.40;99.90;;;;;;6218762;23;20446;-75
2023/04/03 03:31:03;;;;;;;7.18;1.63;;;1.40;99.90;;;;;;6218823;23;20051;-76
2023/04/03 03:33:29;;;;;;;4.60;1.33;;;1.40;99.90;;;;;;6246541;23;20023;-76
2023/04/03 03:35:55;;;;;;;5.55;1.42;;;1.40;99.90;;;;;;6218862;23;20051;-75
2023/04/03 03:38:21;;;;;;;7.38;1.73;;;1.40;99.90;;;;;;6245801;23;20012;-76
2023/04/03 03:40:48;;;;;;;4.45;1.40;;;1.40;99.90;;;;;;6218675;23;20012;-76
2023/04/03 03:43:15;;;;;;;5.75;1.80;;;1.40;99.90;;;;;;6219130;23;20023;-76
2023/04/03 03:45:40;;;;;;;3.67;1.45;;;1.30;99.90;;;;;;6218722;23;20342;-77
2023/04/03 03:48:06;;;;;;;4.05;1.50;;;1.30;99.90;;;;;;6245561;23;20012;-77
2023/04/03 03:50:32;;;;;;;3.75;1.40;;;1.30;99.90;;;;;;6218867;22;20015;-78
2023/04/03 03:52:57;;;;;;;5.10;1.50;;;1.30;99.90;;;;;;6218740;23;20008;-77
2023/04/03 03:55:23;;;;;;;3.92;1.33;;;1.30;99.90;;;;;;6247457;23;20008;-77
2023/04/03 03:57:49;;;;;;;8.20;2.35;;;1.20;99.90;;;;;;6220427;23;20020;-76
2023/04/03 04:00:15;;;;;;;2.55;1.23;;;1.20;99.90;;;;;;6220755;22;20434;-77
2023/04/03 04:02:42;;;;;;;5.03;1.70;;;1.20;99.90;;;;;;6221625;23;20066;-76
2023/04/03 04:05:07;;;;;;;5.82;2.00;;;1.20;99.90;;;;;;6247716;23;20079;-76
2023/04/03 04:07:33;;;;;;;7.25;1.58;;;1.20;99.90;;;;;;6220642;23;20051;-76
2023/04/03 04:09:59;;;;;;;9.05;1.90;;;1.20;99.90;;;;;;6220662;23;20430;-75
2023/04/03 04:12:24;;;;;;;6.47;1.77;;;1.10;99.90;;;;;;6195643;23;20094;-75
2023/04/03 04:14:50;;;;;;;4.03;2.15;;;1.10;99.90;;;;;;6248405;23;20012;-76
2023/04/03 04:17:16;;;;;;;5.10;1.67;;;1.10;99.90;;;;;;6247692;23;20043;-76
2023/04/03 04:19:43;;;;;;;7.43;1.73;;;1.00;99.90;;;;;;6221164;23;20043;-76
2023/04/03 04:22:12;;;;;;;6.57;1.75;;;1.00;99.90;;;;;;6247747;22;20016;-77
2023/04/03 04:24:37;;;;;;;5.18;1.70;;;0.90;99.90;;;;;;6247514;23;20460;-75
2023/04/03 04:27:03;;;;;;;5.93;1.50;;;0.80;99.90;;;;;;6247851;23;20016;-76
2023/04/03 04:29:28;;;;;;;5.78;1.55;;;0.80;99.90;;;;;;6247662;23;20030;-76
2023/04/03 04:31:54;;;;;;;6.32;1.58;;;0.80;99.90;;;;;;6247826;22;20012;-75
2023/04/03 04:34:20;;;;;;;4.22;1.70;;;0.80;99.90;;;;;;6247745;23;20014;-77
2023/04/03 04:36:45;;;;;;;5.85;1.88;;;0.70;99.90;;;;;;6247084;23;20390;-77
2023/04/03 04:39:11;;;;;;;7.63;2.72;;;0.60;99.90;;;;;;6247629;23;20307;-75
2023/04/03 04:41:37;;;;;;;7.85;2.40;;;0.60;99.90;;;;;;6220396;23;20012;-77
2023/04/03 04:44:02;;;;;;;5.30;2.10;;;0.60;99.90;;;;;;6247681;23;20008;-76
2023/04/03 04:46:28;;;;;;;4.97;1.80;;;0.60;99.90;;;;;;6247640;23;20040;-76
2023/04/03 04:48:54;;;;;;;7.88;1.90;;;0.50;99.90;;;;;;6220585;23;20378;-75
2023/04/03 04:51:19;;;;;;;5.15;2.08;;;0.50;99.90;;;;;;6247377;22;20078;-77
2023/04/03 04:53:45;;;;;;;9.20;2.15;;;0.50;99.90;;;;;;6195566;23;20038;-77
2023/04/03 04:56:11;;;;;;;6.07;2.05;;;0.50;99.90;;;;;;6220515;23;20050;-76
2023/04/03 04:58:37;;;;;;;6.60;1.92;;;0.50;99.90;;;;;;6247076;23;20334;-76
2023/04/03 05:01:07;;;;;;;5.05;2.38;;;0.40;99.90;;;;;;6219755;23;20008;-76
2023/04/03 05:03:33;;;;;;;4.38;2.25;;;0.40;99.90;;;;;;6247191;23;20008;-77
2023/04/03 05:05:59;;;;;;;7.47;2.30;;;0.40;99.90;;;;;;6219589;23;20080;-77
2023/04/03 05:08:26;;;;;;;7.20;2.17;;;0.40;99.90;;;;;;6220659;23;20346;-75
2023/04/03 05:10:52;;;;;;;6.93;2.17;;;0.40;99.90;;;;;;6220098;23;20047;-76
2023/04/03 05:13:19;;;;;;;6.30;2.10;;;0.40;99.90;;;;;;6220100;23;20009;-77
2023/04/03 05:15:45;;;;;;;8.88;2.60;;;0.40;99.90;;;;;;6247409;23;20010;-75
2023/04/03 05:18:11;;;;;;;8.10;2.22;;;0.40;99.90;;;;;;6247440;23;20012;-75
2023/04/03 05:20:37;;;;;;;7.97;2.92;;;0.30;99.90;;;;;;6247832;22;20079;-77
2023/04/03 05:23:03;;;;;;;7.32;2.50;;;0.30;99.90;;;;;;6221216;23;20012;-76
2023/04/03 05:25:28;;;;;;;8.07;2.40;;;0.30;99.90;;;;;;6246808;23;20334;-77
2023/04/03 05:27:54;;;;;;;7.85;2.65;;;0.30;99.90;;;;;;6220801;23;20020;-78
2023/04/03 05:30:20;;;;;;;7.30;2.85;;;0.30;99.90;;;;;;6221288;22;20373;-77
2023/04/03 05:32:45;;;;;;;8.65;2.60;;;0.30;99.90;;;;;;6220366;23;20330;-76
2023/04/03 05:35:11;;;;;;;7.53;2.55;;;0.30;99.90;;;;;;6195044;23;20019;-77
2023/04/03 05:37:37;;;;;;;10.20;2.40;;;0.30;99.90;;;;;;6195030;23;20016;-76
2023/04/03 05:40:05;;;;;;;7.22;2.30;;;0.30;99.90;;;;;;6246981;23;20019;-77
2023/04/03 05:42:30;;;;;;;9.38;2.08;;;0.30;99.90;;;;;;6220073;23;20032;-76
2023/04/03 05:44:56;;;;;;;7.50;2.63;;;0.40;99.90;;;;;;6219670;23;20020;-77
2023/04/03 05:47:22;;;;;;;10.40;2.40;;;0.40;99.90;;;;;;6219245;23;20027;-76
2023/04/03 05:49:48;;;;;;;6.95;2.75;;;0.40;99.90;;;;;;6246464;23;20069;-77
2023/04/03 05:52:22;;;;;;;8.10;2.33;;;0.40;99.90;;;;;;6219503;23;20020;-76
2023/04/03 05:54:49;;;;;;;11.40;3.08;;;0.40;99.90;;;;;;6219395;23;20345;-77
2023/04/03 05:57:18;;;;;;;4.82;2.10;;;0.40;99.90;;;;;;6246371;23;20047;-77
2023/04/03 05:59:46;;;;;;;5.22;2.45;;;0.40;99.90;;;;;;6194729;23;20036;-76
2023/04/03 06:02:14;;;;;;;10.27;2.55;;;0.50;99.90;;;;;;6247013;22;20008;-75
2023/04/03 06:04:40;;;;;;;9.20;2.75;;;0.50;99.90;;;;;;6246516;23;20012;-77
2023/04/03 06:07:07;;;;;;;6.20;2.58;;;0.50;99.90;;;;;;6194853;23;20016;-76
2023/04/03 06:09:32;;;;;;;5.75;2.20;;;0.60;99.90;;;;;;6220080;23;20047;-76
2023/04/03 06:11:59;;;;;;;7.40;2.42;;;0.60;99.90;;;;;;6220358;23;20016;-76
2023/04/03 06:14:25;;;;;;;10.77;2.85;;;0.60;99.90;;;;;;6221288;23;20008;-77
2023/04/03 06:16:52;;;;;;;4.53;2.17;;;0.70;99.90;;;;;;6246684;23;20380;-76
2023/04/03 06:19:18;;;;;;;9.30;2.90;;;0.70;99.90;;;;;;6246584;23;20005;-77
2023/04/03 06:21:43;;;;;;;6.28;2.35;;;0.70;99.90;;;;;;6219480;23;20005;-76
2023/04/03 06:24:13;;;;;;;10.20;3.42;;;0.80;99.90;;;;;;6219617;23;20015;-76
2023/04/03 06:26:39;;;;;;;6.93;2.70;;;0.80;99.90;;;;;;6246655;23;20092;-77
2023/04/03 06:29:04;;;;;;;5.28;1.90;;;0.90;99.90;;;;;;6219837;23;20012;-77
2023/04/03 06:31:30;;;;;;;5.78;2.38;;;0.90;99.90;;;;;;6219813;23;20504;-77
2023/04/03 06:33:56;;;;;;;12.85;2.63;;;1.00;99.90;;;;;;6219357;23;20023;-76
2023/04/03 06:36:22;;;;;;;7.88;2.42;;;1.00;99.90;;;;;;6246794;23;20110;-73
2023/04/03 06:38:48;;;;;;;7.55;2.60;;;1.10;99.90;;;;;;6219707;23;20446;-76
2023/04/03 06:41:14;;;;;;;11.77;2.58;;;1.10;99.90;;;;;;6246378;22;20012;-78
2023/04/03 06:43:40;;;;;;;7.15;2.30;;;1.20;99.90;;;;;;6219343;23;20082;-76
2023/04/03 06:46:06;;;;;;;9.18;2.63;;;1.20;99.90;;;;;;6220129;23;20016;-77
2023/04/03 06:48:32;;;;;;;9.18;2.28;;;1.30;99.90;;;;;;6220224;23;20023;-77
2023/04/03 06:50:57;;;;;;;8.25;2.05;;;1.40;99.90;;;;;;6219658;23;20016;-77
2023/04/03 06:53:23;;;;;;;8.63;2.45;;;1.40;99.90;;;;;;6219766;23;20315;-76
2023/04/03 06:55:49;;;;;;;6.75;2.00;;;1.50;99.90;;;;;;6246478;23;20015;-77
2023/04/03 06:58:17;;;;;;;7.88;2.58;;;1.50;99.90;;;;;;6220660;23;20012;-76
2023/04/03 07:00:42;;;;;;;6.82;1.95;;;1.60;99.90;;;;;;6219680;23;20012;-77
2023/04/03 07:03:08;;;;;;;7.00;2.55;;;1.70;99.90;;;;;;6246900;23;20418;-78
2023/04/03 07:05:34;;;;;;;8.88;1.95;;;1.70;99.90;;;;;;6219887;23;20008;-78
2023/04/03 07:08:00;;;;;;;8.27;2.17;;;1.80;99.90;;;;;;6219411;23;20016;-77
2023/04/03 07:10:26;;;;;;;8.00;1.70;;;1.90;99.90;;;;;;6247402;22;20020;-77
2023/04/03 07:12:52;;;;;;;7.93;1.75;;;2.00;99.90;;;;;;6219833;23;20016;-77
2023/04/03 07:15:18;;;;;;;7.93;1.75;;;2.00;99.90;;;;;;6246745;23;20260;-79
2023/04/03 07:17:43;;;;;;;8.80;2.03;;;2.10;99.90;;;;;;6219777;23;20338;-78
2023/04/03 07:20:10;;;;;;;5.68;1.60;;;2.20;99.90;;;;;;6247107;23;20381;-77
2023/04/03 07:22:36;;;;;;;4.32;1.75;;;2.30;99.90;;;;;;6219283;23;20048;-76
2023/04/03 07:25:02;;;;;;;5.00;1.70;;;2.40;99.90;;;;;;6220007;23;20012;-76
2023/04/03 07:27:28;;;;;;;6.70;1.60;;;2.50;99.90;;;;;;6219382;23;20031;-77
2023/04/03 07:29:55;;;;;;;4.40;1.98;;;2.60;99.90;;;;;;6247215;23;20077;-77
2023/04/03 07:32:21;;;;;;;4.57;1.65;;;2.70;99.90;;;;;;6221178;23;20035;-76
2023/04/03 07:34:47;;;;;;;4.82;1.70;;;2.80;99.90;;;;;;6221793;23;20081;-77
2023/04/03 07:37:12;;;;;;;5.82;1.70;;;2.80;99.90;;;;;;6221825;23;20016;-77
2023/04/03 07:39:38;;;;;;;5.30;1.50;;;2.90;99.90;;;;;;6248803;23;20035;-77
2023/04/03 07:42:04;;;;;;;4.75;2.03;;;3.00;99.90;;;;;;6247736;22;20012;-78
2023/04/03 07:44:30;;;;;;;7.28;1.40;;;3.10;99.90;;;;;;6248036;23;20012;-77
2023/04/03 07:46:56;;;;;;;6.00;1.70;;;3.10;99.90;;;;;;6196230;23;20020;-77
2023/04/03 07:49:23;;;;;;;5.25;1.77;;;3.20;99.90;;;;;;6248757;23;20087;-76
2023/04/03 07:51:49;;;;;;;5.43;1.73;;;3.30;99.90;;;;;;6220396;23;20477;-78
2023/04/03 07:54:15;;;;;;;6.43;1.45;;;3.40;99.90;;;;;;6219088;23;20016;-77
2023/04/03 07:56:42;;;;;;;4.95;1.38;;;3.50;99.90;;;;;;6249281;23;20377;-77
2023/04/03 07:59:10;;;;;;;6.47;1.50;;;3.50;99.90;;;;;;6248548;23;20330;-77
2023/04/03 08:01:35;;;;;;;3.83;1.23;;;3.60;99.90;;;;;;6248271;22;20012;-78
2023/04/03 08:04:01;;;;;;;5.57;1.90;;;3.70;99.90;;;;;;6221392;23;20012;-78
2023/04/03 08:06:29;;;;;;;4.45;1.30;;;3.80;99.90;;;;;;6248227;23;20016;-77
2023/04/03 08:08:55;;;;;;;4.60;1.08;;;3.90;99.90;;;;;;6248270;23;20066;-78
2023/04/03 08:11:21;;;;;;;2.85;1.00;;;4.00;99.90;;;;;;6221311;23;20023;-77
2023/04/03 08:13:47;;;;;;;4.57;1.50;;;4.10;99.90;;;;;;6248187;23;20016;-77
2023/04/03 08:16:20;;;;;;;3.38;1.08;;;4.20;99.90;;;;;;6248276;23;20022;-77
2023/04/03 08:18:45;;;;;;;4.88;1.20;;;4.20;99.90;;;;;;6221146;23;20015;-77
2023/04/03 08:21:12;;;;;;;2.00;0.98;;;4.30;99.90;;;;;;6221703;23;20012;-76
2023/04/03 08:23:39;;;;;;;5.15;1.33;;;4.40;99.90;;;;;;6220553;23;20119;-78
2023/04/03 08:26:15;;;;;;;3.63;1.00;;;4.50;99.90;;;;;;6221450;23;20008;-77
2023/04/03 08:28:41;;;;;;;4.20;1.00;;;4.60;99.90;;;;;;6221431;23;20333;-77
2023/04/03 08:31:13;;;;;;;2.95;1.00;;;4.80;99.90;;;;;;6221141;23;20079;-78
2023/04/03 08:33:40;;;;;;;6.00;1.17;;;4.90;99.90;;;;;;6221155;23;20012;-78
2023/04/03 08:36:08;;;;;;;4.75;1.10;;;5.00;99.90;;;;;;6221186;23;20012;-77
2023/04/03 08:38:36;;;;;;;5.18;1.25;;;5.10;99.90;;;;;;6221454;23;20345;-77
2023/04/03 08:41:15;;;;;;;4.93;1.17;;;5.10;99.90;;;;;;6248476;22;20008;-77
2023/04/03 08:43:57;;;;;;;4.03;1.27;;;5.30;99.90;;;;;;6221232;23;20012;-77
2023/04/03 08:46:32;;;;;;;6.32;1.20;;;6.00;99.90;;;;;;6248058;23;20016;-77
2023/04/03 08:48:59;;;;;;;5.33;1.47;;;7.20;99.90;;;;;;6221417;23;20008;-78
2023/04/03 08:51:26;;;;;;;6.20;1.25;;;8.10;99.90;;;;;;6221439;23;20242;-76
2023/04/03 08:54:07;;;;;;;5.45;1.67;;;8.80;99.90;;;;;;6221131;23;20095;-78
2023/04/03 08:56:34;;;;;;;3.83;0.93;;;9.30;99.90;;;;;;6248286;23;20012;-78
2023/04/03 08:59:05;;;;;;;4.00;1.10;;;9.70;99.90;;;;;;6247965;23;20012;-78
2023/04/03 09:01:39;;;;;;;3.35;0.90;;;10.20;99.90;;;;;;6247863;22;20138;-78
2023/04/03 09:04:16;;;;;;;2.67;1.00;;;10.40;99.90;;;;;;6220885;23;20015;-78
2023/04/03 09:06:51;;;;;;;4.53;0.93;;;10.20;99.90;;;;;;6220909;23;20012;-78
2023/04/03 09:09:35;;;;;;;4.32;1.30;;;9.80;99.90;;;;;;6220626;23;20442;-78
2023/04/03 09:12:32;;;;;;;4.00;1.00;;;9.10;99.90;;;;;;6248220;22;20326;-79
2023/04/03 09:15:15;;;;;;;2.75;0.90;;;8.70;99.90;;;;;;6245476;23;20012;-78
2023/04/03 09:17:51;;;;;;;2.50;0.80;;;8.60;99.90;;;;;;6247824;23;20018;-78
2023/04/03 09:20:40;;;;;;;4.63;0.90;;;8.80;99.90;;;;;;6221605;22;20087;-78
2023/04/03 09:23:32;;;;;;;3.35;1.30;;;9.00;99.90;;;;;;6248038;23;20094;-77
2023/04/03 09:26:19;;;;;;;3.22;0.80;;;9.30;99.90;;;;;;6201365;23;20095;-77
2023/04/03 09:28:45;;;;;;;4.63;0.82;;;9.30;99.90;;;;;;6220672;23;20039;-78
2023/04/03 09:31:22;;;;;;;3.08;1.00;;;9.20;99.90;;;;;;6248003;22;20434;-80
2023/04/03 09:33:52;;;;;;;8.25;1.58;;;9.20;99.90;;;;;;6247578;23;20020;-80
2023/04/03 09:36:49;;;;;;;3.90;1.35;;;9.50;99.90;;;;;;6221707;23;20012;-78
2023/04/03 09:39:24;;;;;;;2.10;0.90;;;9.70;99.90;;;;;;6198000;23;20091;-77
2023/04/03 09:42:05;;;;;;;1.87;0.60;;;9.50;99.90;;;;;;6223620;23;20008;-76
2023/04/03 09:44:38;;;;;;;4.25;0.70;;;9.60;99.90;;;;;;6228556;23;20011;-79
2023/04/03 09:47:22;;;;;;;1.70;0.68;;;10.00;99.90;;;;;;6227380;23;20019;-77
2023/04/03 09:49:48;;;;;;;3.20;0.60;;;10.30;99.90;;;;;;6227170;23;20023;-78
2023/04/03 09:52:25;;;;;;;3.38;0.80;;;10.50;99.90;;;;;;6220912;23;20016;-77
2023/04/03 09:54:51;;;;;;;3.28;0.80;;;10.50;99.90;;;;;;6247490;23;20023;-76
2023/04/03 09:57:17;;;;;;;2.20;0.65;;;10.50;99.90;;;;;;6220627;23;20021;-77
2023/04/03 09:59:58;;;;;;;1.95;0.50;;;10.30;99.90;;;;;;6247690;23;20008;-78
2023/04/03 10:02:23;;;;;;;4.80;0.73;;;10.20;99.90;;;;;;6246684;22;20005;-78
2023/04/03 10:04:49;;;;;;;1.98;0.50;;;10.10;99.90;;;;;;6195212;23;20338;-80
2023/04/03 10:07:35;;;;;;;2.33;0.63;;;10.10;99.90;;;;;;6220252;23;20095;-78
2023/04/03 10:10:25;;;;;;;1.80;0.52;;;10.20;99.90;;;;;;6247120;23;20012;-78
2023/04/03 10:13:07;;;;;;;2.58;0.70;;;10.10;99.90;;;;;;6220095;23;20027;-77
2023/04/03 10:15:57;;;;;;;1.85;0.60;;;10.10;99.90;;;;;;6220009;23;20012;-78
2023/04/03 10:18:29;;;;;;;2.85;0.63;;;10.10;99.90;;;;;;6228948;23;20121;-78
2023/04/03 10:21:02;;;;;;;4.35;0.70;;;10.10;99.90;;;;;;6219611;23;20438;-79
2023/04/03 10:23:44;;;;;;;2.17;0.63;;;10.20;99.90;;;;;;6246943;23;20082;-78
2023/04/03 10:26:17;;;;;;;2.38;0.60;;;10.10;95.00;;;;;;6247313;23;20047;-75
2023/04/03 10:28:51;;;;;;;3.80;0.80;;;10.00;97.90;;;;;;6246843;23;20015;-82
2023/04/03 10:31:45;;;;;;;1.40;0.50;;;10.00;97.70;;;;;;6195203;23;20504;-77
2023/04/03 10:34:35;;;;;;;3.30;0.82;;;10.00;96.70;;;;;;6236044;23;20016;-80
2023/04/03 10:37:13;;;;;;;2.67;0.73;;;10.20;96.10;;;;;;6246598;23;20016;-78
2023/04/03 10:39:51;;;;;;;3.55;0.70;;;10.30;99.60;;;;;;6219309;23;20019;-79
2023/04/03 10:42:41;;;;;;;2.15;0.68;;;10.40;93.70;;;;;;6194531;23;20020;-80
2023/04/03 10:45:34;;;;;;;3.20;1.10;;;10.60;93.10;;;;;;6193936;23;20012;-79
2023/04/03 10:48:13;;;;;;;2.78;0.80;;;10.90;95.30;;;;;;6220365;23;20011;-79
2023/04/03 10:50:47;;;;;;;2.38;0.70;;;11.00;97.70;;;;;;6247222;22;20428;-77
2023/04/03 10:53:32;;;;;;;3.40;0.70;;;11.20;98.50;;;;;;6219304;23;20017;-79
2023/04/03 10:56:15;;;;;;;2.03;1.13;;;11.20;95.20;;;;;;6246519;23;20068;-79
2023/04/03 10:58:45;;;;;;;2.33;0.80;;;11.20;94.20;;;;;;6220145;23;20012;-78
2023/04/03 11:01:21;;;;;;;2.78;0.55;;;11.30;94.90;;;;;;6219556;23;20008;-77
2023/04/03 11:03:53;;;;;;;2.60;0.68;;;11.40;96.30;;;;;;6220909;23;20019;-78
2023/04/03 11:06:21;;;;;;;3.30;0.68;;;11.60;96.40;;;;;;6221696;23;20042;-80
2023/04/03 11:09:15;;;;;;;3.47;0.70;;;11.50;94.60;;;;;;6221823;23;20091;-78
2023/04/03 11:11:42;;;;;;;2.70;0.55;;;11.60;94.00;;;;;;6221245;23;20012;-80
2023/04/03 11:14:28;;;;;;;3.47;0.90;;;11.70;93.90;;;;;;6221692;23;20074;-79
2023/04/03 11:17:23;;;;;;;3.35;0.80;;;11.90;93.80;;;;;;6247971;23;20058;-77
2023/04/03 11:19:57;;;;;;;4.78;0.88;;;12.00;90.80;;;;;;6196371;23;20035;-78
2023/04/03 11:22:50;;;;;;;2.35;0.60;;;11.90;91.10;;;;;;6248332;22;20012;-79
2023/04/03 11:25:25;;;;;;;2.72;0.60;;;11.90;88.20;;;;;;6221695;23;20020;-78
2023/04/03 11:28:01;;;;;;;3.42;0.85;;;12.10;90.30;;;;;;6221696;23;20436;-78
2023/04/03 11:30:44;;;;;;;2.97;0.73;;;12.30;91.20;;;;;;6248901;22;20019;-78
2023/04/03 11:33:27;;;;;;;2.90;0.80;;;12.40;89.50;;;;;;6222021;23;20090;-78
2023/04/03 11:35:59;;;;;;;3.22;1.10;;;12.40;83.90;;;;;;6221328;23;20135;-79
2023/04/03 11:38:34;;;;;;;3.78;0.80;;;12.50;86.40;;;;;;6247933;23;20078;-78
2023/04/03 11:41:01;;;;;;;2.40;0.85;;;12.50;85.20;;;;;;6247867;22;20363;-79
2023/04/03 11:43:31;;;;;;;2.47;0.70;;;12.60;88.00;;;;;;6221240;23;20384;-78
2023/04/03 11:46:05;;;;;;;2.88;0.70;;;12.80;85.20;;;;;;6221614;23;20079;-77
2023/04/03 11:48:33;;;;;;;3.17;0.70;;;12.90;87.40;;;;;;6222150;23;20079;-78
2023/04/03 11:51:38;;;;;;;3.28;0.80;;;12.90;86.70;;;;;;6248665;22;20083;-77
2023/04/03 11:54:41;;;;;;;3.30;0.82;;;13.10;83.70;;;;;;6217772;23;20012;-78
2023/04/03 11:57:45;;;;;;;1.65;0.65;;;13.20;82.90;;;;;;6248562;23;20070;-78
2023/04/03 12:00:51;;;;;;;2.40;0.60;;;13.30;76.80;;;;;;6247969;23;20016;-77
2023/04/03 12:06:17;;;;;;;4.57;0.80;;;13.10;82.60;;;;;;6221327;23;20012;-78
2023/04/03 12:08:46;;;;;;;2.17;0.60;;;13.00;72.50;;;;;;6187102;23;20086;-78
2023/04/03 12:11:12;;;;;;;5.32;0.90;;;13.00;81.40;;;;;;6248496;22;20008;-78
2023/04/03 12:13:48;;;;;;;3.53;0.70;;;13.10;82.40;;;;;;6248516;23;20012;-78
2023/04/03 12:16:38;;;;;;;3.33;0.95;;;13.10;80.00;;;;;;6220899;23;20035;-77
2023/04/03 12:19:14;;;;;;;2.53;0.80;;;13.30;76.00;;;;;;6248038;23;20012;-79
2023/04/03 12:21:46;;;;;;;3.30;0.70;;;13.40;79.80;;;;;;6221483;23;20012;-78
2023/04/03 12:24:20;;;;;;;3.97;0.80;;;13.50;76.90;;;;;;6221578;23;20513;-78
2023/04/03 12:26:47;;;;;;;3.43;1.03;;;13.50;75.90;;;;;;6220983;23;20020;-76
2023/04/03 12:29:35;;;;;;;2.28;0.70;;;13.30;77.30;;;;;;6195508;23;20286;-78
2023/04/03 12:32:03;;;;;;;2.28;0.73;;;13.10;70.30;;;;;;6220640;23;20020;-77
2023/04/03 12:34:57;;;;;;;3.35;0.95;;;12.90;74.10;;;;;;6248053;23;20016;-79
2023/04/03 12:37:51;;;;;;;3.28;0.82;;;13.00;72.30;;;;;;6220715;23;20020;-78
2023/04/03 12:40:42;;;;;;;4.20;1.00;;;13.30;73.50;;;;;;6220416;22;20410;-77
2023/04/03 12:43:44;;;;;;;4.25;1.10;;;13.20;73.90;;;;;;6220629;23;20055;-78
2023/04/03 12:46:18;;;;;;;4.88;1.00;;;13.30;72.10;;;;;;6214483;23;20012;-78
2023/04/03 12:48:57;;;;;;;1.52;0.70;;;13.20;73.50;;;;;;6220726;23;20012;-77
2023/04/03 12:51:40;;;;;;;1.73;0.77;;;13.40;75.30;;;;;;6220747;23;20411;-78
2023/04/03 12:54:35;;;;;;;3.00;0.95;;;13.60;74.10;;;;;;6248034;23;20043;-78
2023/04/03 12:57:18;;;;;;;3.67;0.90;;;13.90;73.00;;;;;;6220574;23;20016;-78
2023/04/03 12:59:47;;;;;;;5.43;1.00;;;14.20;73.10;;;;;;6247873;23;20382;-77
2023/04/03 13:02:21;;;;;;;5.00;1.00;;;14.40;77.60;;;;;;6220180;23;20054;-78
2023/04/03 13:04:48;;;;;;;3.05;0.95;;;14.30;74.40;;;;;;6247612;23;20077;-78
2023/04/03 13:07:37;;;;;;;4.47;1.30;;;14.10;73.90;;;;;;6220161;23;20012;-78
2023/04/03 13:10:08;;;;;;;3.35;0.90;;;14.20;72.70;;;;;;6220607;23;20015;-78
2023/04/03 13:12:49;;;;;;;2.45;1.00;;;14.40;74.50;;;;;;6220488;23;20026;-78
2023/04/03 13:15:17;;;;;;;6.10;1.23;;;14.50;72.20;;;;;;6220656;23;20016;-78
2023/04/03 13:17:43;;;;;;;3.72;1.10;;;14.60;74.00;;;;;;6220568;23;20074;-78
2023/04/03 13:20:17;;;;;;;4.25;0.93;;;14.80;74.70;;;;;;6220536;23;20074;-77
2023/04/03 13:22:56;;;;;;;2.95;0.88;;;15.00;75.20;;;;;;6220776;23;20044;-77
2023/04/03 13:25:24;;;;;;;2.20;0.93;;;15.10;72.60;;;;;;6220762;23;20048;-79
2023/04/03 13:27:50;;;;;;;3.83;1.08;;;15.30;74.40;;;;;;6247004;23;20019;-79
2023/04/03 13:30:27;;;;;;;3.03;0.90;;;15.20;73.70;;;;;;6220214;22;20109;-77
2023/04/03 13:32:56;;;;;;;3.70;1.08;;;15.20;71.00;;;;;;6220537;23;20012;-77
2023/04/03 13:35:41;;;;;;;2.00;0.82;;;15.40;74.50;;;;;;6247395;23;20008;-78
2023/04/03 13:38:31;;;;;;;3.38;1.20;;;15.50;68.80;;;;;;6195639;23;20404;-77
2023/04/03 13:41:04;;;;;;;2.95;1.00;;;15.80;68.50;;;;;;6247587;22;20012;-78
2023/04/03 13:43:33;;;;;;;3.20;1.10;;;16.00;72.00;;;;;;6220486;23;20019;-78
2023/04/03 13:46:20;;;;;;;2.40;1.02;;;15.90;72.20;;;;;;6247339;23;20012;-78
2023/04/03 13:48:49;;;;;;;3.50;1.20;;;15.90;68.60;;;;;;6247908;23;20019;-77
2023/04/03 13:51:14;;;;;;;3.70;1.10;;;16.00;71.30;;;;;;6246920;22;20102;-78
2023/04/03 13:53:48;;;;;;;5.70;1.25;;;15.90;70.70;;;;;;6220016;23;20008;-77
2023/04/03 13:56:18;;;;;;;4.35;1.42;;;15.70;69.30;;;;;;6219979;23;20016;-78
2023/04/03 13:58:58;;;;;;;4.03;1.40;;;15.50;68.90;;;;;;6196409;23;20012;-78
2023/04/03 14:01:25;;;;;;;2.97;1.05;;;15.60;70.00;;;;;;6219998;23;20012;-77
2023/04/03 14:03:57;;;;;;;2.70;1.13;;;15.70;72.30;;;;;;6219939;23;20084;-79
2023/04/03 14:06:24;;;;;;;3.58;1.02;;;15.80;71.00;;;;;;6220086;23;20462;-77
2023/04/03 14:08:51;;;;;;;2.08;1.10;;;15.90;72.50;;;;;;6220028;23;20023;-78
2023/04/03 14:11:30;;;;;;;5.10;1.40;;;16.00;72.30;;;;;;6219648;23;20012;-78
2023/04/03 14:14:00;;;;;;;3.55;1.20;;;16.10;69.60;;;;;;6219919;23;20035;-78
2023/04/03 14:16:30;;;;;;;3.28;1.30;;;16.20;72.60;;;;;;6194300;23;20023;-79
2023/04/03 14:18:56;;;;;;;5.68;1.25;;;16.10;70.00;;;;;;6220713;23;20426;-78
2023/04/03 14:21:22;;;;;;;4.38;1.20;;;15.90;70.20;;;;;;6219832;23;20445;-78
2023/04/03 14:23:49;;;;;;;6.03;1.17;;;15.90;70.60;;;;;;6247351;23;20290;-79
2023/04/03 14:26:21;;;;;;;4.55;1.40;;;15.90;70.20;;;;;;6221026;23;20083;-78
2023/04/03 14:28:51;;;;;;;3.58;1.23;;;15.70;68.50;;;;;;6247399;23;20031;-79
2023/04/03 14:31:17;;;;;;;4.35;2.05;;;15.80;69.60;;;;;;6219686;23;20016;-79
2023/04/03 14:33:43;;;;;;;3.10;1.10;;;15.70;70.00;;;;;;6220949;23;20079;-78
2023/04/03 14:36:16;;;;;;;4.45;1.50;;;15.90;70.00;;;;;;6219826;23;20042;-78
2023/04/03 14:38:44;;;;;;;2.33;1.00;;;16.00;69.40;;;;;;6247314;23;20011;-80
2023/04/03 14:41:13;;;;;;;4.68;1.20;;;16.10;70.30;;;;;;6247352;22;20279;-80
2023/04/03 14:43:39;;;;;;;3.88;1.40;;;16.00;67.30;;;;;;6195317;23;20008;-78
2023/04/03 14:46:10;;;;;;;2.92;1.52;;;15.90;69.00;;;;;;6246740;23;20014;-79
2023/04/03 14:48:36;;;;;;;3.05;1.10;;;15.90;68.90;;;;;;6219767;23;20016;-78
2023/04/03 14:51:02;;;;;;;4.60;1.50;;;15.60;69.30;;;;;;6219590;23;20030;-80
2023/04/03 14:53:38;;;;;;;2.45;1.10;;;15.70;69.30;;;;;;6246435;23;20046;-78
2023/04/03 14:56:12;;;;;;;3.55;1.30;;;15.60;66.70;;;;;;6219575;23;20020;-79
2023/04/03 14:58:37;;;;;;;4.43;1.40;;;15.70;68.40;;;;;;6195642;23;20060;-79
2023/04/03 15:01:03;;;;;;;4.35;1.30;;;15.90;70.00;;;;;;6220312;23;20016;-78
2023/04/03 15:03:29;;;;;;;5.57;1.75;;;15.90;69.40;;;;;;6220322;23;20008;-77
2023/04/03 15:05:54;;;;;;;3.38;1.40;;;16.10;69.50;;;;;;6247457;23;20369;-77
2023/04/03 15:08:27;;;;;;;4.40;1.52;;;16.20;69.80;;;;;;6220321;23;20051;-77
2023/04/03 15:10:52;;;;;;;4.43;1.45;;;16.10;67.50;;;;;;6220464;23;20319;-77
2023/04/03 15:13:20;;;;;;;4.00;1.70;;;15.80;67.80;;;;;;6245507;23;20008;-76
2023/04/03 15:15:46;;;;;;;3.60;1.50;;;15.60;67.50;;;;;;6245380;23;20441;-77
2023/04/03 15:18:20;;;;;;;3.03;1.40;;;15.70;67.30;;;;;;6218738;23;20377;-78
2023/04/03 15:20:47;;;;;;;4.28;1.10;;;15.70;66.40;;;;;;6247096;22;20042;-77
2023/04/03 15:23:15;;;;;;;4.18;1.27;;;15.80;67.40;;;;;;6247286;23;20047;-77
2023/04/03 15:25:42;;;;;;;3.33;1.17;;;15.80;66.80;;;;;;6218921;23;20019;-77
2023/04/03 15:28:29;;;;;;;3.00;1.23;;;15.70;66.70;;;;;;6220137;23;20020;-76
2023/04/03 15:30:55;;;;;;;4.43;1.30;;;15.60;66.30;;;;;;6218206;23;20028;-75
2023/04/03 15:33:21;;;;;;;4.47;1.58;;;15.50;65.70;;;;;;6218851;23;20503;-77
2023/04/03 15:35:47;;;;;;;3.90;1.30;;;15.40;65.70;;;;;;6218967;23;20027;-78
2023/04/03 15:38:13;;;;;;;2.92;1.40;;;15.50;65.80;;;;;;6245820;23;20434;-79
2023/04/03 15:40:38;;;;;;;2.50;1.05;;;15.50;65.80;;;;;;6245297;22;20008;-77
2023/04/03 15:43:05;;;;;;;4.90;1.20;;;15.60;65.20;;;;;;6219296;23;20087;-77
2023/04/03 15:45:33;;;;;;;3.78;1.35;;;15.60;65.10;;;;;;6218736;23;20012;-78
2023/04/03 15:47:59;;;;;;;4.03;1.20;;;15.50;65.00;;;;;;6219081;23;20398;-77
2023/04/03 15:50:25;;;;;;;5.00;1.63;;;15.40;64.90;;;;;;6246326;22;20075;-78
2023/04/03 15:52:54;;;;;;;3.33;1.08;;;15.30;64.40;;;;;;6221315;23;20038;-78
2023/04/03 15:55:27;;;;;;;3.50;1.00;;;15.40;64.50;;;;;;6221283;23;20074;-74
2023/04/03 15:57:53;;;;;;;4.78;1.23;;;15.50;63.90;;;;;;6203670;23;20012;-74
2023/04/03 16:00:20;;;;;;;2.95;0.90;;;15.40;64.10;;;;;;6204415;22;20464;-74
2023/04/03 16:02:48;;;;;;;3.45;1.10;;;15.40;64.70;;;;;;6222629;23;20046;-77
2023/04/03 16:05:17;;;;;;;3.95;1.25;;;15.40;65.20;;;;;;6221553;23;20012;-76
2023/04/03 16:07:43;;;;;;;3.63;1.05;;;15.30;65.00;;;;;;6221617;23;20020;-78
2023/04/03 16:10:10;;;;;;;2.92;1.23;;;15.20;64.50;;;;;;6221674;23;20044;-77
2023/04/03 16:12:36;;;;;;;2.17;1.00;;;15.10;64.30;;;;;;6221345;23;20036;-77
2023/04/03 16:15:03;;;;;;;2.13;1.00;;;14.90;63.60;;;;;;6248478;23;20012;-76
2023/04/03 16:17:30;;;;;;;2.70;1.13;;;14.90;64.00;;;;;;6222537;23;20020;-77